createdAt,value
2022-08-29T00:01:44.429Z,87.30
2022-08-29T00:04:14.888Z,87.59
2022-08-29T00:06:46.436Z,88.35
2022-08-29T00:09:16.058Z,88.40
2022-08-29T00:11:46.560Z,89.12
2022-08-29T00:14:23.501Z,89.41
2022-08-29T00:16:53.710Z,88.66
2022-08-29T00:19:24.425Z,89.31
2022-08-29T00:21:54.176Z,90.28
2022-08-29T00:24:23.938Z,89.04
2022-08-29T00:26:54.066Z,89.03
2022-08-29T00:29:26.297Z,89.00
2022-08-29T00:31:56.080Z,89.21
2022-08-29T00:34:25.766Z,89.91
2022-08-29T00:36:55.348Z,89.74
2022-08-29T00:39:25.004Z,90.07
2022-08-29T00:41:55.847Z,89.90
2022-08-29T00:44:28.768Z,91.16
2022-08-29T00:47:01.699Z,91.67
2022-08-29T00:49:36.903Z,91.14
2022-08-29T00:52:13.957Z,91.64
2022-08-29T00:54:46.298Z,89.86
2022-08-29T00:57:17.828Z,89.75
2022-08-29T00:59:51.707Z,89.66
2022-08-29T01:02:21.662Z,89.23
2022-08-29T01:04:51.516Z,89.23
2022-08-29T01:07:21.208Z,89.04
2022-08-29T01:09:52.065Z,88.96
2022-08-29T01:12:20.750Z,89.36
2022-08-29T01:14:55.392Z,89.64
2022-08-29T01:17:30.630Z,90.07
2022-08-29T01:20:05.635Z,89.97
2022-08-29T01:22:50.994Z,89.75
2022-08-29T01:25:25.896Z,89.77
2022-08-29T01:28:00.125Z,88.96
2022-08-29T01:30:29.793Z,89.02
2022-08-29T01:33:00.987Z,88.79
2022-08-29T01:35:31.929Z,89.30
2022-08-29T01:38:03.477Z,89.38
2022-08-29T01:40:38.493Z,88.84
2022-08-29T01:43:08.746Z,89.29
2022-08-29T01:45:38.495Z,89.29
2022-08-29T01:48:08.589Z,88.57
2022-08-29T01:50:38.369Z,88.64
2022-08-29T01:53:08.072Z,88.75
2022-08-29T01:55:40.953Z,88.66
2022-08-29T01:58:10.735Z,88.31
2022-08-29T02:00:40.698Z,89.05
2022-08-29T02:03:10.509Z,88.78
2022-08-29T02:05:40.247Z,89.69
2022-08-29T02:08:10.013Z,89.67
2022-08-29T02:10:42.664Z,88.57
2022-08-29T02:13:13.855Z,87.81
2022-08-29T02:15:43.499Z,88.19
2022-08-29T02:18:13.517Z,88.50
2022-08-29T02:20:43.378Z,88.11
2022-08-29T02:23:29.812Z,88.73
2022-08-29T02:26:03.080Z,88.75
2022-08-29T02:28:32.797Z,89.42
2022-08-29T02:31:02.757Z,89.70
2022-08-29T02:33:32.643Z,91.20
2022-08-29T02:36:02.432Z,93.31
2022-08-29T02:38:32.238Z,93.76
2022-08-29T02:41:05.312Z,95.25
2022-08-29T02:43:35.060Z,95.17
2022-08-29T02:46:05.496Z,94.30
2022-08-29T02:48:35.260Z,93.41
2022-08-29T02:51:06.018Z,91.89
2022-08-29T02:53:35.671Z,90.72
2022-08-29T02:56:08.396Z,89.72
2022-08-29T02:58:44.440Z,89.49
2022-08-29T03:01:14.679Z,89.27
2022-08-29T03:03:44.400Z,88.90
2022-08-29T03:06:14.389Z,89.09
2022-08-29T03:08:44.494Z,88.75
2022-08-29T03:11:17.383Z,88.66
2022-08-29T03:13:47.763Z,88.98
2022-08-29T03:16:17.581Z,90.53
2022-08-29T03:18:47.271Z,91.14
2022-08-29T03:21:19.830Z,91.00
2022-08-29T03:23:50.408Z,91.61
2022-08-29T03:26:23.307Z,89.82
2022-08-29T03:28:53.020Z,89.74
2022-08-29T03:31:22.880Z,90.12
2022-08-29T03:33:52.724Z,89.98
2022-08-29T03:36:22.461Z,88.95
2022-08-29T03:38:52.148Z,88.39
2022-08-29T03:41:31.239Z,89.30
2022-08-29T03:44:01.214Z,88.83
2022-08-29T03:46:31.257Z,88.85
2022-08-29T03:49:00.984Z,91.21
2022-08-29T03:51:31.755Z,92.40
2022-08-29T03:54:01.582Z,91.74
2022-08-29T03:56:33.878Z,92.14
2022-08-29T03:59:03.790Z,90.99
2022-08-29T04:01:33.499Z,89.99
2022-08-29T04:04:03.334Z,89.98
2022-08-29T04:06:33.890Z,89.61
2022-08-29T04:09:04.003Z,89.38
2022-08-29T04:11:36.527Z,89.57
2022-08-29T04:14:06.156Z,89.69
2022-08-29T04:16:35.902Z,88.90
2022-08-29T04:19:05.659Z,89.03
2022-08-29T04:21:38.560Z,89.35
2022-08-29T04:24:08.814Z,89.19
2022-08-29T04:26:42.208Z,89.32
2022-08-29T04:29:14.739Z,88.93
2022-08-29T04:31:45.819Z,90.21
2022-08-29T04:34:16.750Z,89.99
2022-08-29T04:36:47.415Z,89.60
2022-08-29T04:39:18.171Z,89.37
2022-08-29T04:41:50.589Z,91.21
2022-08-29T04:44:20.331Z,90.48
2022-08-29T04:46:50.104Z,90.05
2022-08-29T04:49:21.784Z,89.20
2022-08-29T04:51:51.692Z,89.44
2022-08-29T04:54:21.407Z,89.98
2022-08-29T04:56:53.713Z,89.86
2022-08-29T04:59:27.439Z,90.35
2022-08-29T05:01:57.722Z,90.94
2022-08-29T05:04:28.107Z,90.37
2022-08-29T05:06:57.852Z,89.62
2022-08-29T05:09:27.535Z,90.38
2022-08-29T05:11:59.854Z,91.84
2022-08-29T05:14:29.585Z,90.14
2022-08-29T05:16:59.290Z,90.43
2022-08-29T05:19:29.000Z,89.17
2022-08-29T05:22:04.290Z,90.01
2022-08-29T05:24:37.406Z,90.25
2022-08-29T05:27:14.615Z,89.79
2022-08-29T05:29:45.792Z,89.64
2022-08-29T05:32:17.657Z,89.32
2022-08-29T05:34:48.576Z,89.29
2022-08-29T05:37:21.856Z,89.00
2022-08-29T05:39:52.892Z,89.74
2022-08-29T05:42:27.530Z,90.40
2022-08-29T05:44:57.273Z,90.49
2022-08-29T05:47:26.987Z,91.23
2022-08-29T05:49:56.619Z,90.59
2022-08-29T05:52:26.666Z,90.67
2022-08-29T05:54:56.837Z,89.64
2022-08-29T05:57:29.220Z,90.17
2022-08-29T05:59:58.863Z,90.43
2022-08-29T06:02:28.723Z,90.48
2022-08-29T06:04:59.048Z,90.02
2022-08-29T06:07:28.714Z,90.37
2022-08-29T06:10:03.624Z,88.65
2022-08-29T06:12:36.822Z,89.07
2022-08-29T06:15:07.119Z,89.65
2022-08-29T06:17:38.898Z,89.21
2022-08-29T06:20:11.392Z,89.07
2022-08-29T06:22:42.016Z,88.81
2022-08-29T06:25:37.402Z,90.24
2022-08-29T06:28:05.136Z,89.98
2022-08-29T06:30:36.258Z,90.77
2022-08-29T06:33:06.038Z,90.68
2022-08-29T06:35:35.772Z,88.58
2022-08-29T06:38:05.477Z,88.86
2022-08-29T06:40:35.292Z,87.31
2022-08-29T06:43:07.776Z,86.19
2022-08-29T06:45:43.838Z,85.47
2022-08-29T06:48:14.008Z,84.38
2022-08-29T06:50:45.781Z,82.49
2022-08-29T06:53:27.422Z,81.29
2022-08-29T06:56:11.339Z,78.81
2022-08-29T06:58:44.638Z,79.95
2022-08-29T07:01:16.810Z,79.83
2022-08-29T07:03:46.606Z,78.11
2022-08-29T07:06:16.573Z,79.33
2022-08-29T07:08:55.055Z,77.57
2022-08-29T07:11:25.343Z,77.98
2022-08-29T07:14:00.201Z,76.24
2022-08-29T07:16:31.068Z,74.12
2022-08-29T07:19:00.872Z,74.27
2022-08-29T07:21:30.694Z,73.10
2022-08-29T07:24:02.061Z,73.12
2022-08-29T07:26:33.879Z,72.64
2022-08-29T07:29:09.742Z,73.09
2022-08-29T07:31:39.653Z,72.23
2022-08-29T07:34:09.457Z,70.08
2022-08-29T07:36:40.079Z,68.63
2022-08-29T07:39:11.879Z,68.88
2022-08-29T07:41:42.594Z,69.38
2022-08-29T07:44:15.835Z,68.96
2022-08-29T07:46:46.462Z,67.50
2022-08-29T07:49:16.229Z,66.60
2022-08-29T07:51:45.881Z,67.20
2022-08-29T07:54:17.146Z,66.83
2022-08-29T07:56:48.118Z,66.04
2022-08-29T07:59:23.226Z,65.53
2022-08-29T08:01:53.776Z,64.39
2022-08-29T08:04:24.301Z,65.38
2022-08-29T08:06:54.035Z,64.23
2022-08-29T08:09:23.844Z,65.60
2022-08-29T08:11:53.613Z,63.52
2022-08-29T08:14:32.263Z,63.70
2022-08-29T08:17:04.832Z,63.64
2022-08-29T08:19:34.686Z,63.70
2022-08-29T08:22:04.326Z,63.15
2022-08-29T08:24:34.180Z,63.05
2022-08-29T08:27:03.941Z,62.80
2022-08-29T08:29:36.224Z,61.04
2022-08-29T08:32:06.471Z,62.80
2022-08-29T08:34:36.136Z,62.93
2022-08-29T08:37:09.975Z,63.65
2022-08-29T08:39:40.439Z,62.49
2022-08-29T08:42:20.666Z,61.76
2022-08-29T08:45:07.910Z,61.65
2022-08-29T08:47:42.633Z,61.58
2022-08-29T08:50:19.990Z,61.44
2022-08-29T08:52:55.805Z,63.07
2022-08-29T08:55:36.292Z,60.00
2022-08-29T08:58:18.470Z,60.26
2022-08-29T09:01:02.643Z,61.46
2022-08-29T09:04:14.148Z,60.80
2022-08-29T09:07:10.969Z,60.03
2022-08-29T09:09:57.074Z,59.55
2022-08-29T09:12:36.295Z,61.38
2022-08-29T09:15:13.940Z,60.46
2022-08-29T09:17:50.892Z,60.79
2022-08-29T09:20:22.945Z,59.83
2022-08-29T09:23:01.926Z,59.37
2022-08-29T09:25:36.342Z,59.36
2022-08-29T09:28:09.176Z,59.77
2022-08-29T09:30:41.545Z,59.94
2022-08-29T09:33:15.884Z,60.13
2022-08-29T09:35:48.768Z,59.11
2022-08-29T09:38:24.154Z,59.23
2022-08-29T09:40:58.979Z,59.46
2022-08-29T09:43:31.841Z,59.02
2022-08-29T09:46:26.442Z,58.29
2022-08-29T09:49:16.573Z,57.20
2022-08-29T09:51:49.511Z,56.58
2022-08-29T09:54:27.792Z,56.21
2022-08-29T09:57:01.842Z,56.36
2022-08-29T09:59:35.415Z,55.95
2022-08-29T10:02:18.525Z,56.24
2022-08-29T10:04:54.541Z,55.80
2022-08-29T10:07:28.213Z,54.66
2022-08-29T10:10:05.285Z,53.10
2022-08-29T10:12:50.366Z,54.04
2022-08-29T10:15:47.032Z,53.06
2022-08-29T10:18:28.839Z,53.92
2022-08-29T10:21:14.914Z,51.81
2022-08-29T10:23:58.392Z,49.88
2022-08-29T10:26:35.822Z,49.98
2022-08-29T10:29:15.142Z,50.31
2022-08-29T10:31:51.665Z,49.60
2022-08-29T10:34:42.030Z,51.05
2022-08-29T10:37:26.657Z,48.71
2022-08-29T10:40:03.575Z,49.34
2022-08-29T10:42:37.121Z,49.41
2022-08-29T10:45:18.378Z,48.79
2022-08-29T10:47:55.099Z,46.56
2022-08-29T10:50:44.107Z,45.49
2022-08-29T10:53:22.132Z,46.44
2022-08-29T10:55:57.145Z,45.02
2022-08-29T10:58:42.393Z,46.49
2022-08-29T11:01:17.556Z,46.24
2022-08-29T11:03:53.450Z,45.92
2022-08-29T11:06:27.879Z,46.55
2022-08-29T11:09:09.979Z,47.17
2022-08-29T11:11:43.155Z,48.54
2022-08-29T11:14:23.423Z,47.73
2022-08-29T11:16:55.679Z,49.81
2022-08-29T11:19:30.280Z,48.42
2022-08-29T11:22:05.700Z,47.30
2022-08-29T11:24:46.895Z,47.21
2022-08-29T11:27:26.999Z,45.45
2022-08-29T11:30:05.000Z,44.84
2022-08-29T11:32:47.602Z,44.66
2022-08-29T11:35:23.391Z,44.58
2022-08-29T11:38:11.970Z,44.43
2022-08-29T11:44:10.590Z,45.57
2022-08-29T11:46:44.214Z,44.60
2022-08-29T11:49:37.192Z,45.55
2022-08-29T11:52:26.864Z,43.52
2022-08-29T11:55:28.745Z,45.07
2022-08-29T11:58:09.817Z,43.54
2022-08-29T12:00:47.976Z,42.42
2022-08-29T12:03:46.373Z,42.56
2022-08-29T12:06:35.126Z,44.44
2022-08-29T12:09:21.698Z,42.67
2022-08-29T12:12:20.963Z,42.03
2022-08-29T12:14:54.679Z,41.23
2022-08-29T12:18:04.218Z,41.63
2022-08-29T12:20:45.887Z,41.55
2022-08-29T12:23:22.804Z,42.69
2022-08-29T12:26:15.840Z,44.49
2022-08-29T12:28:50.488Z,45.69
2022-08-29T12:32:17.811Z,45.10
2022-08-29T12:35:00.910Z,43.79
2022-08-29T12:37:40.941Z,43.93
2022-08-29T12:40:25.239Z,43.73
2022-08-29T12:43:16.097Z,44.39
2022-08-29T12:45:48.944Z,44.68
2022-08-29T12:48:24.411Z,42.09
2022-08-29T12:50:56.730Z,42.55
2022-08-29T12:53:29.966Z,43.04
2022-08-29T12:56:02.725Z,43.80
2022-08-29T12:58:40.527Z,43.16
2022-08-29T13:01:22.801Z,44.43
2022-08-29T13:04:00.504Z,44.72
2022-08-29T13:06:33.820Z,45.03
2022-08-29T13:09:05.027Z,42.63
2022-08-29T13:11:36.143Z,43.43
2022-08-29T13:14:11.911Z,44.42
2022-08-29T13:16:42.695Z,44.26
2022-08-29T13:19:21.514Z,44.98
2022-08-29T13:21:53.831Z,44.94
2022-08-29T13:24:24.066Z,45.13
2022-08-29T13:27:05.756Z,45.33
2022-08-29T13:29:39.769Z,43.86
2022-08-29T13:32:24.480Z,44.21
2022-08-29T13:35:09.932Z,43.91
2022-08-29T13:37:44.494Z,44.64
2022-08-29T13:40:37.274Z,46.88
2022-08-29T13:43:08.851Z,47.73
2022-08-29T13:45:39.116Z,47.93
2022-08-29T13:48:20.529Z,49.61
2022-08-29T13:50:50.226Z,49.40
2022-08-29T13:53:22.513Z,49.50
2022-08-29T13:55:52.131Z,47.74
2022-08-29T13:58:24.244Z,47.06
2022-08-29T14:00:53.861Z,47.23
2022-08-29T14:03:23.920Z,46.18
2022-08-29T14:05:56.578Z,46.27
2022-08-29T14:08:30.461Z,45.79
2022-08-29T14:11:00.079Z,44.58
2022-08-29T14:13:29.811Z,45.09
2022-08-29T14:16:00.283Z,45.23
2022-08-29T14:18:32.673Z,44.65
2022-08-29T14:21:02.825Z,44.73
2022-08-29T14:23:35.600Z,43.64
2022-08-29T14:26:05.232Z,44.17
2022-08-29T14:28:39.404Z,44.39
2022-08-29T14:31:10.239Z,44.19
2022-08-29T14:33:39.970Z,43.57
2022-08-29T14:36:10.210Z,44.23
2022-08-29T14:38:42.423Z,41.93
2022-08-29T14:41:12.041Z,41.18
2022-08-29T14:43:41.671Z,41.76
2022-08-29T14:46:11.558Z,42.08
2022-08-29T14:48:41.327Z,41.71
2022-08-29T14:51:10.977Z,41.68
2022-08-29T14:53:54.167Z,42.22
2022-08-29T14:56:47.587Z,41.29
2022-08-29T14:59:18.177Z,41.55
2022-08-29T15:01:53.766Z,41.96
2022-08-29T15:04:35.457Z,42.21
2022-08-29T15:07:07.287Z,43.06
2022-08-29T15:09:39.885Z,41.25
2022-08-29T15:12:10.190Z,42.05
2022-08-29T15:14:39.908Z,41.95
2022-08-29T15:17:09.944Z,42.69
2022-08-29T15:22:30.301Z,41.91
2022-08-29T15:25:03.451Z,43.63
2022-08-29T15:27:33.254Z,42.73
2022-08-29T15:30:03.101Z,43.13
2022-08-29T15:32:34.644Z,42.28
2022-08-29T15:35:04.355Z,41.93
2022-08-29T15:37:34.069Z,42.57
2022-08-29T15:40:12.820Z,44.64
2022-08-29T15:42:42.943Z,43.64
2022-08-29T15:45:13.504Z,44.59
2022-08-29T15:47:46.246Z,45.63
2022-08-29T15:50:17.397Z,45.08
2022-08-29T15:52:47.343Z,45.05
2022-08-29T15:55:19.663Z,44.40
2022-08-29T15:57:51.725Z,45.18
2022-08-29T16:00:30.071Z,46.59
2022-08-29T16:03:03.070Z,46.50
2022-08-29T16:05:33.293Z,44.78
2022-08-29T16:08:03.349Z,45.77
2022-08-29T16:10:36.279Z,47.32
2022-08-29T16:13:06.695Z,46.31
2022-08-29T16:15:36.466Z,45.92
2022-08-29T16:18:06.816Z,46.78
2022-08-29T16:20:41.651Z,47.69
2022-08-29T16:23:11.519Z,48.93
2022-08-29T16:25:44.220Z,50.38
2022-08-29T16:28:14.213Z,48.01
2022-08-29T16:30:45.837Z,48.21
2022-08-29T16:33:16.162Z,49.15
2022-08-29T16:35:46.499Z,49.49
2022-08-29T16:38:16.434Z,49.17
2022-08-29T16:40:49.012Z,47.36
2022-08-29T16:43:19.313Z,46.16
2022-08-29T16:45:49.004Z,47.40
2022-08-29T16:48:18.873Z,48.03
2022-08-29T16:50:49.119Z,47.40
2022-08-29T16:53:19.381Z,47.85
2022-08-29T16:55:51.578Z,47.73
2022-08-29T16:58:33.634Z,46.76
2022-08-29T17:03:37.980Z,48.82
2022-08-29T17:06:08.139Z,47.77
2022-08-29T17:08:35.162Z,47.21
2022-08-29T17:11:05.393Z,47.97
2022-08-29T17:13:32.873Z,47.32
2022-08-29T17:16:01.846Z,49.24
2022-08-29T17:18:31.950Z,49.53
2022-08-29T17:21:01.714Z,49.59
2022-08-29T17:23:32.849Z,49.94
2022-08-29T17:26:03.823Z,49.80
2022-08-29T17:28:36.101Z,50.53
2022-08-29T17:31:05.773Z,50.91
2022-08-29T17:33:36.168Z,51.08
2022-08-29T17:36:07.077Z,49.91
2022-08-29T17:38:36.983Z,48.96
2022-08-29T17:41:15.165Z,49.35
2022-08-29T17:43:50.365Z,49.87
2022-08-29T17:46:21.994Z,50.37
2022-08-29T17:48:51.994Z,52.13
2022-08-29T17:51:21.649Z,51.79
2022-08-29T17:53:52.797Z,52.09
2022-08-29T17:56:28.301Z,53.08
2022-08-29T17:59:02.440Z,53.50
2022-08-29T18:01:35.725Z,53.68
2022-08-29T18:04:05.881Z,53.02
2022-08-29T18:06:35.473Z,54.11
2022-08-29T18:09:06.080Z,54.23
2022-08-29T18:11:36.170Z,55.17
2022-08-29T18:14:08.757Z,54.33
2022-08-29T18:16:38.623Z,54.58
2022-08-29T18:19:09.015Z,53.73
2022-08-29T18:21:40.668Z,53.38
2022-08-29T18:24:15.786Z,53.34
2022-08-29T18:26:46.859Z,53.25
2022-08-29T18:29:19.343Z,54.51
2022-08-29T18:31:49.078Z,54.29
2022-08-29T18:34:19.127Z,54.00
2022-08-29T18:36:50.706Z,53.80
2022-08-29T18:39:21.230Z,54.94
2022-08-29T18:41:52.274Z,54.92
2022-08-29T18:44:24.714Z,54.38
2022-08-29T18:46:54.475Z,55.16
2022-08-29T18:49:44.399Z,54.13
2022-08-29T18:52:14.289Z,54.28
2022-08-29T18:54:44.926Z,55.04
2022-08-29T18:57:14.570Z,54.51
2022-08-29T18:59:46.811Z,55.71
2022-08-29T19:02:16.684Z,55.95
2022-08-29T19:04:46.477Z,56.63
2022-08-29T19:07:16.203Z,56.38
2022-08-29T19:09:54.034Z,55.98
2022-08-29T19:12:23.607Z,56.75
2022-08-29T19:14:56.713Z,57.55
2022-08-29T19:17:26.609Z,55.98
2022-08-29T19:20:10.313Z,57.75
2022-08-29T19:22:40.363Z,58.14
2022-08-29T19:25:11.453Z,58.30
2022-08-29T19:27:44.128Z,59.44
2022-08-29T19:30:19.660Z,59.03
2022-08-29T19:32:49.273Z,59.07
2022-08-29T19:35:18.971Z,59.74
2022-08-29T19:37:48.667Z,60.05
2022-08-29T19:40:20.496Z,60.57
2022-08-29T19:42:50.512Z,59.92
2022-08-29T19:45:22.880Z,58.99
2022-08-29T19:47:52.747Z,60.18
2022-08-29T19:50:25.310Z,60.10
2022-08-29T19:52:56.371Z,58.92
2022-08-29T19:55:27.038Z,59.36
2022-08-29T19:57:56.977Z,60.14
2022-08-29T20:00:31.112Z,59.31
2022-08-29T20:03:01.286Z,60.05
2022-08-29T20:05:30.929Z,60.00
2022-08-29T20:08:01.007Z,60.61
2022-08-29T20:10:33.029Z,61.68
2022-08-29T20:13:03.529Z,60.99
2022-08-29T20:15:36.285Z,61.98
2022-08-29T20:18:07.234Z,62.96
2022-08-29T20:20:40.064Z,62.66
2022-08-29T20:23:10.521Z,63.84
2022-08-29T20:25:40.372Z,63.99
2022-08-29T20:28:15.413Z,63.61
2022-08-29T20:30:48.325Z,64.84
2022-08-29T20:33:19.985Z,63.26
2022-08-29T20:36:02.073Z,63.55
2022-08-29T20:38:33.348Z,63.39
2022-08-29T20:41:03.027Z,63.84
2022-08-29T20:43:32.659Z,64.90
2022-08-29T20:46:09.431Z,65.11
2022-08-29T20:48:39.512Z,64.85
2022-08-29T20:51:11.606Z,65.62
2022-08-29T20:53:42.329Z,65.41
2022-08-29T20:56:12.357Z,65.62
2022-08-29T20:58:42.004Z,65.37
2022-08-29T21:01:14.338Z,64.56
2022-08-29T21:03:56.493Z,64.51
2022-08-29T21:06:26.170Z,64.76
2022-08-29T21:08:56.039Z,64.33
2022-08-29T21:11:25.825Z,65.42
2022-08-29T21:13:55.660Z,65.63
2022-08-29T21:16:28.668Z,64.81
2022-08-29T21:18:58.530Z,65.34
2022-08-29T21:21:28.124Z,66.35
2022-08-29T21:23:57.777Z,66.66
2022-08-29T21:26:27.401Z,67.69
2022-08-29T21:28:56.998Z,67.25
2022-08-29T21:31:29.473Z,67.47
2022-08-29T21:34:02.201Z,67.89
2022-08-29T21:36:34.140Z,66.85
2022-08-29T21:39:04.143Z,66.75
2022-08-29T21:41:35.712Z,66.82
2022-08-29T21:44:06.252Z,66.30
2022-08-29T21:46:43.215Z,65.97
2022-08-29T21:49:14.790Z,66.56
2022-08-29T21:51:44.401Z,66.53
2022-08-29T21:54:15.431Z,66.59
2022-08-29T21:56:46.081Z,65.80
2022-08-29T21:59:17.817Z,65.62
2022-08-29T22:01:52.658Z,65.88
2022-08-29T22:04:28.105Z,65.72
2022-08-29T22:07:01.812Z,64.48
2022-08-29T22:09:33.443Z,65.37
2022-08-29T22:12:03.864Z,64.98
2022-08-29T22:14:48.714Z,65.14
2022-08-29T22:17:20.991Z,64.67
2022-08-29T22:19:50.688Z,64.77
2022-08-29T22:22:20.328Z,64.99
2022-08-29T22:24:49.978Z,65.48
2022-08-29T22:27:19.640Z,65.94
2022-08-29T22:29:49.316Z,65.64
2022-08-29T22:32:21.626Z,65.77
2022-08-29T22:34:51.256Z,65.89
2022-08-29T22:37:20.927Z,65.78
2022-08-29T22:39:50.605Z,66.83
2022-08-29T22:42:20.416Z,67.03
2022-08-29T22:45:06.392Z,67.51
2022-08-29T22:47:39.454Z,68.01
2022-08-29T22:50:13.516Z,68.27
2022-08-29T22:52:43.204Z,68.16
2022-08-29T22:55:16.786Z,68.56
2022-08-29T22:57:47.024Z,68.74
2022-08-29T23:00:19.817Z,68.49
2022-08-29T23:02:53.218Z,69.47
2022-08-29T23:05:24.265Z,69.32
2022-08-29T23:07:54.159Z,69.46
2022-08-29T23:10:23.972Z,69.27
2022-08-29T23:12:53.611Z,69.40
2022-08-29T23:15:23.322Z,69.64
2022-08-29T23:17:55.544Z,70.11
2022-08-29T23:20:27.408Z,70.09
2022-08-29T23:22:58.888Z,70.44
2022-08-29T23:25:28.545Z,70.52
2022-08-29T23:27:58.182Z,70.89
2022-08-29T23:30:28.102Z,70.84
2022-08-29T23:33:00.328Z,71.47
2022-08-29T23:35:29.946Z,71.46
2022-08-29T23:37:59.723Z,71.37
2022-08-29T23:40:29.410Z,71.51
2022-08-29T23:42:59.533Z,71.97
2022-08-29T23:45:29.386Z,72.12
2022-08-29T23:48:01.867Z,71.56
2022-08-29T23:50:31.488Z,71.73
2022-08-29T23:53:01.051Z,72.04
2022-08-29T23:55:30.629Z,72.25
2022-08-29T23:58:00.263Z,72.61
